sensor_id;sensor_type;location;lat;lon;timestamp;P1;durP1;ratioP1;P2;durP2;ratioP2
483;SDS011;228;48.922;12.198;2023-05-10T04:02:59;8.67;;;6.50;;
483;SDS011;228;48.922;12.198;2023-05-10T04:05:26;8.57;;;6.93;;
483;SDS011;228;48.922;12.198;2023-05-10T04:07:52;7.47;;;6.60;;
483;SDS011;228;48.922;12.198;2023-05-10T04:10:19;9.33;;;7.00;;
483;SDS011;228;48.922;12.198;2023-05-10T04:12:46;9.07;;;7.73;;
483;SDS011;228;48.922;12.198;2023-05-10T04:15:12;9.33;;;7.33;;
483;SDS011;228;48.922;12.198;2023-05-10T04:17:38;9.10;;;7.73;;
483;SDS011;228;48.922;12.198;2023-05-10T04:20:05;10.87;;;7.17;;
483;SDS011;228;48.922;12.198;2023-05-10T04:22:33;11.07;;;7.30;;
483;SDS011;228;48.922;12.198;2023-05-10T04:25:00;10.47;;;7.57;;
483;SDS011;228;48.922;12.198;2023-05-10T04:27:26;8.87;;;7.43;;
483;SDS011;228;48.922;12.198;2023-05-10T04:29:52;9.57;;;7.40;;
483;SDS011;228;48.922;12.198;2023-05-10T04:32:19;12.17;;;8.23;;
483;SDS011;228;48.922;12.198;2023-05-10T04:34:45;9.63;;;7.67;;
483;SDS011;228;48.922;12.198;2023-05-10T04:37:12;9.57;;;7.80;;
483;SDS011;228;48.922;12.198;2023-05-10T04:39:38;13.07;;;8.97;;
483;SDS011;228;48.922;12.198;2023-05-10T04:42:04;11.83;;;9.13;;
483;SDS011;228;48.922;12.198;2023-05-10T04:44:31;13.10;;;9.50;;
483;SDS011;228;48.922;12.198;2023-05-10T04:46:58;13.57;;;8.83;;
483;SDS011;228;48.922;12.198;2023-05-10T04:49:24;12.20;;;9.20;;
483;SDS011;228;48.922;12.198;2023-05-10T04:51:50;11.97;;;8.10;;
483;SDS011;228;48.922;12.198;2023-05-10T04:54:16;9.73;;;8.17;;
483;SDS011;228;48.922;12.198;2023-05-10T04:56:42;13.07;;;9.03;;
483;SDS011;228;48.922;12.198;2023-05-10T04:59:08;11.30;;;8.80;;
483;SDS011;228;48.922;12.198;2023-05-10T05:01:34;12.37;;;9.03;;
483;SDS011;228;48.922;12.198;2023-05-10T05:04:00;10.43;;;8.27;;
483;SDS011;228;48.922;12.198;2023-05-10T05:06:26;10.70;;;8.03;;
483;SDS011;228;48.922;12.198;2023-05-10T05:08:52;11.23;;;8.70;;
483;SDS011;228;48.922;12.198;2023-05-10T05:11:18;10.17;;;8.47;;
483;SDS011;228;48.922;12.198;2023-05-10T05:13:46;11.53;;;8.87;;
483;SDS011;228;48.922;12.198;2023-05-10T05:16:12;12.80;;;8.63;;
483;SDS011;228;48.922;12.198;2023-05-10T05:18:38;12.97;;;8.60;;
483;SDS011;228;48.922;12.198;2023-05-10T05:21:17;11.67;;;8.77;;
483;SDS011;228;48.922;12.198;2023-05-10T05:23:44;11.17;;;8.30;;
483;SDS011;228;48.922;12.198;2023-05-10T05:26:11;10.23;;;8.57;;
483;SDS011;228;48.922;12.198;2023-05-10T05:28:37;11.40;;;8.60;;
483;SDS011;228;48.922;12.198;2023-05-10T05:31:04;10.87;;;8.43;;
483;SDS011;228;48.922;12.198;2023-05-10T05:33:31;10.50;;;8.43;;
483;SDS011;228;48.922;12.198;2023-05-10T05:36:00;13.37;;;8.67;;
483;SDS011;228;48.922;12.198;2023-05-10T05:38:28;11.40;;;9.00;;
483;SDS011;228;48.922;12.198;2023-05-10T05:40:54;10.17;;;8.90;;
483;SDS011;228;48.922;12.198;2023-05-10T05:43:20;11.57;;;8.53;;
483;SDS011;228;48.922;12.198;2023-05-10T05:45:46;11.27;;;9.13;;
483;SDS011;228;48.922;12.198;2023-05-10T05:48:12;10.63;;;8.87;;
483;SDS011;228;48.922;12.198;2023-05-10T05:50:38;11.10;;;9.13;;
483;SDS011;228;48.922;12.198;2023-05-10T05:53:04;10.60;;;8.70;;
483;SDS011;228;48.922;12.198;2023-05-10T05:55:30;10.30;;;8.33;;
483;SDS011;228;48.922;12.198;2023-05-10T05:57:57;12.13;;;9.33;;
483;SDS011;228;48.922;12.198;2023-05-10T06:00:23;11.93;;;9.17;;
483;SDS011;228;48.922;12.198;2023-05-10T06:02:50;11.37;;;8.80;;
483;SDS011;228;48.922;12.198;2023-05-10T06:05:15;10.20;;;8.13;;
483;SDS011;228;48.922;12.198;2023-05-10T06:07:42;11.67;;;8.90;;
483;SDS011;228;48.922;12.198;2023-05-10T06:10:08;11.17;;;8.80;;
483;SDS011;228;48.922;12.198;2023-05-10T06:12:34;10.00;;;8.60;;
483;SDS011;228;48.922;12.198;2023-05-10T06:15:01;12.30;;;9.17;;
483;SDS011;228;48.922;12.198;2023-05-10T06:17:29;9.00;;;7.60;;
483;SDS011;228;48.922;12.198;2023-05-10T06:19:55;9.13;;;7.97;;
483;SDS011;228;48.922;12.198;2023-05-10T06:22:22;10.80;;;8.97;;
483;SDS011;228;48.922;12.198;2023-05-10T06:24:48;10.60;;;8.47;;
483;SDS011;228;48.922;12.198;2023-05-10T06:27:15;11.30;;;9.23;;
483;SDS011;228;48.922;12.198;2023-05-10T06:29:41;11.73;;;8.80;;
483;SDS011;228;48.922;12.198;2023-05-10T06:32:07;10.97;;;8.83;;
483;SDS011;228;48.922;12.198;2023-05-10T06:34:33;9.87;;;8.37;;
483;SDS011;228;48.922;12.198;2023-05-10T06:36:59;10.27;;;8.30;;
483;SDS011;228;48.922;12.198;2023-05-10T06:39:25;11.00;;;8.87;;
483;SDS011;228;48.922;12.198;2023-05-10T06:41:51;9.30;;;8.30;;
483;SDS011;228;48.922;12.198;2023-05-10T06:44:18;9.13;;;8.17;;
483;SDS011;228;48.922;12.198;2023-05-10T06:46:44;9.73;;;8.07;;
483;SDS011;228;48.922;12.198;2023-05-10T06:49:10;9.20;;;8.03;;
483;SDS011;228;48.922;12.198;2023-05-10T06:51:36;9.57;;;7.00;;
483;SDS011;228;48.922;12.198;2023-05-10T06:54:02;8.77;;;7.53;;
483;SDS011;228;48.922;12.198;2023-05-10T06:56:28;8.83;;;7.93;;
483;SDS011;228;48.922;12.198;2023-05-10T06:58:54;9.43;;;7.90;;
483;SDS011;228;48.922;12.198;2023-05-10T07:01:21;10.27;;;7.80;;
483;SDS011;228;48.922;12.198;2023-05-10T07:03:47;9.23;;;8.23;;
483;SDS011;228;48.922;12.198;2023-05-10T07:06:14;13.47;;;8.17;;
483;SDS011;228;48.922;12.198;2023-05-10T07:08:40;9.63;;;7.97;;
483;SDS011;228;48.922;12.198;2023-05-10T07:11:06;10.10;;;7.30;;
483;SDS011;228;48.922;12.198;2023-05-10T07:13:33;10.63;;;8.07;;
483;SDS011;228;48.922;12.198;2023-05-10T07:16:00;9.13;;;7.40;;
483;SDS011;228;48.922;12.198;2023-05-10T07:18:27;10.33;;;7.40;;
483;SDS011;228;48.922;12.198;2023-05-10T07:20:54;8.57;;;7.43;;
483;SDS011;228;48.922;12.198;2023-05-10T07:23:20;10.57;;;7.47;;
483;SDS011;228;48.922;12.198;2023-05-10T07:25:46;9.57;;;7.47;;
483;SDS011;228;48.922;12.198;2023-05-10T07:28:14;10.63;;;8.17;;
483;SDS011;228;48.922;12.198;2023-05-10T07:30:41;10.50;;;8.27;;
483;SDS011;228;48.922;12.198;2023-05-10T07:33:08;10.17;;;8.10;;
483;SDS011;228;48.922;12.198;2023-05-10T07:35:35;9.87;;;7.70;;
483;SDS011;228;48.922;12.198;2023-05-10T07:38:01;9.30;;;7.80;;
483;SDS011;228;48.922;12.198;2023-05-10T07:40:28;11.37;;;8.10;;
483;SDS011;228;48.922;12.198;2023-05-10T07:42:54;10.23;;;7.67;;
483;SDS011;228;48.922;12.198;2023-05-10T07:45:21;10.90;;;7.93;;
483;SDS011;228;48.922;12.198;2023-05-10T07:47:48;10.13;;;7.83;;
483;SDS011;228;48.922;12.198;2023-05-10T07:50:15;9.47;;;7.83;;
483;SDS011;228;48.922;12.198;2023-05-10T07:52:41;9.90;;;7.73;;
483;SDS011;228;48.922;12.198;2023-05-10T07:55:07;10.47;;;8.00;;
483;SDS011;228;48.922;12.198;2023-05-10T07:57:34;9.27;;;8.13;;
483;SDS011;228;48.922;12.198;2023-05-10T08:00:00;10.70;;;8.53;;
483;SDS011;228;48.922;12.198;2023-05-10T08:02:38;8.80;;;7.90;;
483;SDS011;228;48.922;12.198;2023-05-10T08:05:05;10.77;;;8.17;;
483;SDS011;228;48.922;12.198;2023-05-10T08:07:31;8.67;;;7.50;;
483;SDS011;228;48.922;12.198;2023-05-10T08:09:57;9.43;;;7.90;;
483;SDS011;228;48.922;12.198;2023-05-10T08:12:23;9.50;;;7.13;;
483;SDS011;228;48.922;12.198;2023-05-10T08:14:50;9.60;;;7.13;;
483;SDS011;228;48.922;12.198;2023-05-10T08:17:15;8.17;;;7.13;;
483;SDS011;228;48.922;12.198;2023-05-10T08:19:42;11.13;;;8.00;;
483;SDS011;228;48.922;12.198;2023-05-10T08:22:07;8.87;;;7.07;;
483;SDS011;228;48.922;12.198;2023-05-10T08:24:33;8.57;;;7.28;;
483;SDS011;228;48.922;12.198;2023-05-10T08:27:07;7.67;;;6.70;;
483;SDS011;228;48.922;12.198;2023-05-10T08:29:34;7.63;;;6.33;;
483;SDS011;228;48.922;12.198;2023-05-10T08:32:01;9.52;;;7.38;;
483;SDS011;228;48.922;12.198;2023-05-10T08:34:27;8.90;;;6.55;;
483;SDS011;228;48.922;12.198;2023-05-10T08:36:53;9.73;;;8.00;;
483;SDS011;228;48.922;12.198;2023-05-10T08:39:19;9.77;;;7.78;;
483;SDS011;228;48.922;12.198;2023-05-10T08:41:45;7.85;;;7.05;;
483;SDS011;228;48.922;12.198;2023-05-10T08:44:13;9.48;;;7.43;;
483;SDS011;228;48.922;12.198;2023-05-10T08:46:44;7.60;;;6.32;;
483;SDS011;228;48.922;12.198;2023-05-10T08:49:13;6.95;;;5.97;;
483;SDS011;228;48.922;12.198;2023-05-10T08:51:48;6.70;;;5.70;;
483;SDS011;228;48.922;12.198;2023-05-10T08:54:19;7.82;;;6.03;;
483;SDS011;228;48.922;12.198;2023-05-10T08:56:46;4.35;;;3.90;;
483;SDS011;228;48.922;12.198;2023-05-10T08:59:12;5.00;;;4.00;;
483;SDS011;228;48.922;12.198;2023-05-10T09:01:39;4.53;;;4.07;;
483;SDS011;228;48.922;12.198;2023-05-10T09:04:08;4.10;;;3.70;;
483;SDS011;228;48.922;12.198;2023-05-10T09:06:33;4.78;;;4.28;;
483;SDS011;228;48.922;12.198;2023-05-10T09:09:00;6.03;;;5.38;;
483;SDS011;228;48.922;12.198;2023-05-10T09:11:26;7.30;;;5.65;;
483;SDS011;228;48.922;12.198;2023-05-10T09:13:54;5.30;;;4.75;;
483;SDS011;228;48.922;12.198;2023-05-10T09:16:21;3.50;;;3.20;;
483;SDS011;228;48.922;12.198;2023-05-10T09:18:48;2.85;;;2.65;;
483;SDS011;228;48.922;12.198;2023-05-10T09:21:16;3.08;;;2.53;;
483;SDS011;228;48.922;12.198;2023-05-10T09:23:44;3.60;;;2.95;;
483;SDS011;228;48.922;12.198;2023-05-10T09:26:11;2.60;;;2.40;;
483;SDS011;228;48.922;12.198;2023-05-10T09:31:17;2.63;;;2.42;;
483;SDS011;228;48.922;12.198;2023-05-10T09:33:44;2.50;;;2.30;;
483;SDS011;228;48.922;12.198;2023-05-10T09:36:14;3.53;;;2.55;;
483;SDS011;228;48.922;12.198;2023-05-10T09:38:47;2.93;;;2.63;;
483;SDS011;228;48.922;12.198;2023-05-10T09:41:16;3.13;;;2.83;;
483;SDS011;228;48.922;12.198;2023-05-10T09:43:44;2.90;;;2.60;;
483;SDS011;228;48.922;12.198;2023-05-10T09:46:10;3.03;;;2.80;;
483;SDS011;228;48.922;12.198;2023-05-10T09:48:54;4.30;;;3.55;;
483;SDS011;228;48.922;12.198;2023-05-10T09:53:48;4.13;;;3.72;;
483;SDS011;228;48.922;12.198;2023-05-10T09:56:43;2.70;;;2.50;;
483;SDS011;228;48.922;12.198;2023-05-10T09:59:10;3.20;;;2.90;;
483;SDS011;228;48.922;12.198;2023-05-10T10:01:37;3.00;;;2.63;;
483;SDS011;228;48.922;12.198;2023-05-10T10:04:07;2.60;;;2.40;;
483;SDS011;228;48.922;12.198;2023-05-10T10:06:38;3.22;;;2.55;;
483;SDS011;228;48.922;12.198;2023-05-10T10:09:05;2.83;;;2.55;;
483;SDS011;228;48.922;12.198;2023-05-10T10:11:36;2.80;;;2.60;;
483;SDS011;228;48.922;12.198;2023-05-10T10:14:04;2.40;;;2.20;;
483;SDS011;228;48.922;12.198;2023-05-10T10:16:31;2.08;;;1.88;;
483;SDS011;228;48.922;12.198;2023-05-10T10:18:57;1.40;;;1.30;;
483;SDS011;228;48.922;12.198;2023-05-10T10:21:23;1.25;;;1.15;;
483;SDS011;228;48.922;12.198;2023-05-10T10:23:50;1.83;;;1.30;;
483;SDS011;228;48.922;12.198;2023-05-10T10:26:18;1.27;;;1.27;;
483;SDS011;228;48.922;12.198;2023-05-10T10:29:06;1.40;;;1.30;;
483;SDS011;228;48.922;12.198;2023-05-10T10:31:46;1.38;;;1.30;;
483;SDS011;228;48.922;12.198;2023-05-10T10:34:29;1.40;;;1.23;;
483;SDS011;228;48.922;12.198;2023-05-10T10:36:56;1.23;;;1.20;;
483;SDS011;228;48.922;12.198;2023-05-10T10:39:29;1.00;;;1.00;;
483;SDS011;228;48.922;12.198;2023-05-10T10:41:56;1.23;;;1.10;;
483;SDS011;228;48.922;12.198;2023-05-10T10:49:48;1.20;;;1.20;;
483;SDS011;228;48.922;12.198;2023-05-10T10:52:38;1.15;;;1.15;;
483;SDS011;228;48.922;12.198;2023-05-10T11:02:52;1.10;;;1.10;;
483;SDS011;228;48.922;12.198;2023-05-10T11:05:44;1.67;;;1.30;;
483;SDS011;228;48.922;12.198;2023-05-10T11:08:31;2.83;;;2.63;;
483;SDS011;228;48.922;12.198;2023-05-10T11:11:06;3.90;;;3.15;;
483;SDS011;228;48.922;12.198;2023-05-10T11:13:33;2.70;;;2.50;;
483;SDS011;228;48.922;12.198;2023-05-10T11:18:51;3.28;;;2.97;;
483;SDS011;228;48.922;12.198;2023-05-10T11:21:33;3.60;;;3.17;;
483;SDS011;228;48.922;12.198;2023-05-10T11:24:29;3.70;;;3.00;;
483;SDS011;228;48.922;12.198;2023-05-10T11:26:55;3.45;;;3.15;;
483;SDS011;228;48.922;12.198;2023-05-10T11:29:22;2.85;;;2.65;;
483;SDS011;228;48.922;12.198;2023-05-10T11:31:48;3.25;;;2.95;;
483;SDS011;228;48.922;12.198;2023-05-10T11:34:22;4.32;;;3.20;;
483;SDS011;228;48.922;12.198;2023-05-10T11:36:55;3.30;;;3.00;;
483;SDS011;228;48.922;12.198;2023-05-10T11:39:26;3.08;;;2.65;;
483;SDS011;228;48.922;12.198;2023-05-10T11:41:54;2.80;;;2.50;;
483;SDS011;228;48.922;12.198;2023-05-10T11:44:20;2.80;;;2.50;;
483;SDS011;228;48.922;12.198;2023-05-10T11:46:46;2.70;;;2.50;;
483;SDS011;228;48.922;12.198;2023-05-10T11:49:12;3.05;;;2.63;;
483;SDS011;228;48.922;12.198;2023-05-10T11:51:38;3.63;;;2.90;;
483;SDS011;228;48.922;12.198;2023-05-10T11:54:08;2.53;;;2.33;;
483;SDS011;228;48.922;12.198;2023-05-10T11:56:37;3.05;;;2.80;;
483;SDS011;228;48.922;12.198;2023-05-10T11:59:06;2.05;;;1.95;;
483;SDS011;228;48.922;12.198;2023-05-10T12:01:33;2.63;;;2.42;;
483;SDS011;228;48.922;12.198;2023-05-10T12:04:00;2.50;;;2.20;;
483;SDS011;228;48.922;12.198;2023-05-10T12:06:27;2.60;;;2.40;;
483;SDS011;228;48.922;12.198;2023-05-10T12:08:57;2.50;;;2.30;;
483;SDS011;228;48.922;12.198;2023-05-10T12:11:27;1.98;;;1.88;;
483;SDS011;228;48.922;12.198;2023-05-10T12:13:54;2.55;;;2.35;;
483;SDS011;228;48.922;12.198;2023-05-10T12:16:22;2.70;;;2.50;;
483;SDS011;228;48.922;12.198;2023-05-10T12:18:51;2.53;;;2.33;;
483;SDS011;228;48.922;12.198;2023-05-10T12:21:21;2.70;;;2.50;;
483;SDS011;228;48.922;12.198;2023-05-10T12:23:51;3.30;;;2.90;;
483;SDS011;228;48.922;12.198;2023-05-10T12:26:22;3.47;;;3.17;;
483;SDS011;228;48.922;12.198;2023-05-10T12:28:50;2.75;;;2.10;;
483;SDS011;228;48.922;12.198;2023-05-10T12:31:16;2.60;;;2.40;;
483;SDS011;228;48.922;12.198;2023-05-10T12:33:42;2.77;;;2.50;;
483;SDS011;228;48.922;12.198;2023-05-10T12:36:11;3.30;;;2.63;;
483;SDS011;228;48.922;12.198;2023-05-10T12:38:39;3.37;;;2.63;;
483;SDS011;228;48.922;12.198;2023-05-10T12:41:17;3.20;;;2.90;;
483;SDS011;228;48.922;12.198;2023-05-10T12:43:45;2.93;;;2.73;;
483;SDS011;228;48.922;12.198;2023-05-10T12:46:12;2.80;;;2.60;;
483;SDS011;228;48.922;12.198;2023-05-10T12:48:41;3.23;;;2.97;;
483;SDS011;228;48.922;12.198;2023-05-10T12:51:08;2.83;;;2.20;;
483;SDS011;228;48.922;12.198;2023-05-10T12:53:37;2.67;;;1.77;;
483;SDS011;228;48.922;12.198;2023-05-10T12:56:04;2.17;;;1.93;;
483;SDS011;228;48.922;12.198;2023-05-10T12:58:31;2.90;;;2.60;;
483;SDS011;228;48.922;12.198;2023-05-10T13:01:00;5.17;;;3.43;;
483;SDS011;228;48.922;12.198;2023-05-10T13:03:26;4.43;;;3.17;;
483;SDS011;228;48.922;12.198;2023-05-10T13:05:52;4.90;;;3.07;;
483;SDS011;228;48.922;12.198;2023-05-10T13:08:18;4.23;;;3.57;;
483;SDS011;228;48.922;12.198;2023-05-10T13:10:44;4.47;;;3.05;;
483;SDS011;228;48.922;12.198;2023-05-10T13:13:10;3.42;;;3.05;;
483;SDS011;228;48.922;12.198;2023-05-10T13:15:36;3.40;;;3.10;;
483;SDS011;228;48.922;12.198;2023-05-10T13:18:02;2.75;;;2.55;;
483;SDS011;228;48.922;12.198;2023-05-10T13:20:28;2.63;;;1.90;;
483;SDS011;228;48.922;12.198;2023-05-10T13:22:55;2.00;;;1.80;;
483;SDS011;228;48.922;12.198;2023-05-10T13:25:22;2.10;;;1.90;;
483;SDS011;228;48.922;12.198;2023-05-10T13:27:48;2.13;;;1.90;;
483;SDS011;228;48.922;12.198;2023-05-10T13:30:14;2.30;;;2.10;;
483;SDS011;228;48.922;12.198;2023-05-10T13:32:40;4.03;;;2.33;;
483;SDS011;228;48.922;12.198;2023-05-10T13:35:07;3.87;;;2.50;;
483;SDS011;228;48.922;12.198;2023-05-10T13:37:33;6.13;;;2.57;;
483;SDS011;228;48.922;12.198;2023-05-10T13:40:02;3.47;;;2.27;;
483;SDS011;228;48.922;12.198;2023-05-10T13:42:30;1.93;;;1.60;;
483;SDS011;228;48.922;12.198;2023-05-10T13:44:57;3.03;;;1.83;;
483;SDS011;228;48.922;12.198;2023-05-10T13:47:23;3.07;;;2.60;;
483;SDS011;228;48.922;12.198;2023-05-10T13:49:49;3.50;;;3.17;;
483;SDS011;228;48.922;12.198;2023-05-10T13:52:15;2.20;;;2.00;;
483;SDS011;228;48.922;12.198;2023-05-10T13:54:41;3.77;;;2.77;;
483;SDS011;228;48.922;12.198;2023-05-10T13:57:07;4.20;;;2.47;;
483;SDS011;228;48.922;12.198;2023-05-10T13:59:33;2.70;;;2.47;;
483;SDS011;228;48.922;12.198;2023-05-10T14:01:59;4.80;;;2.63;;
483;SDS011;228;48.922;12.198;2023-05-10T14:04:29;2.13;;;1.90;;
483;SDS011;228;48.922;12.198;2023-05-10T14:06:56;1.40;;;1.30;;
483;SDS011;228;48.922;12.198;2023-05-10T14:09:22;1.70;;;1.43;;
483;SDS011;228;48.922;12.198;2023-05-10T14:11:51;1.73;;;1.63;;
483;SDS011;228;48.922;12.198;2023-05-10T14:14:22;3.10;;;2.10;;
483;SDS011;228;48.922;12.198;2023-05-10T14:16:48;2.73;;;2.20;;
483;SDS011;228;48.922;12.198;2023-05-10T14:19:14;1.70;;;1.60;;
483;SDS011;228;48.922;12.198;2023-05-10T14:21:40;2.70;;;1.90;;
483;SDS011;228;48.922;12.198;2023-05-10T14:24:06;2.37;;;2.17;;
483;SDS011;228;48.922;12.198;2023-05-10T14:26:32;2.30;;;2.10;;
483;SDS011;228;48.922;12.198;2023-05-10T14:28:59;2.00;;;1.90;;
483;SDS011;228;48.922;12.198;2023-05-10T14:31:25;1.90;;;1.80;;
483;SDS011;228;48.922;12.198;2023-05-10T14:33:52;2.57;;;2.10;;
483;SDS011;228;48.922;12.198;2023-05-10T14:36:18;2.07;;;1.90;;
483;SDS011;228;48.922;12.198;2023-05-10T14:38:45;2.53;;;1.97;;
483;SDS011;228;48.922;12.198;2023-05-10T14:41:11;1.90;;;1.80;;
483;SDS011;228;48.922;12.198;2023-05-10T14:43:39;2.33;;;2.00;;
483;SDS011;228;48.922;12.198;2023-05-10T14:46:06;2.13;;;1.73;;
483;SDS011;228;48.922;12.198;2023-05-10T14:48:32;2.10;;;1.90;;
483;SDS011;228;48.922;12.198;2023-05-10T14:50:58;2.37;;;1.90;;
483;SDS011;228;48.922;12.198;2023-05-10T14:53:24;4.73;;;1.97;;
483;SDS011;228;48.922;12.198;2023-05-10T14:55:50;2.60;;;2.10;;
483;SDS011;228;48.922;12.198;2023-05-10T14:58:16;2.93;;;1.90;;
483;SDS011;228;48.922;12.198;2023-05-10T15:00:42;2.37;;;1.90;;
483;SDS011;228;48.922;12.198;2023-05-10T15:03:08;5.43;;;3.70;;
483;SDS011;228;48.922;12.198;2023-05-10T15:05:35;3.97;;;2.20;;
483;SDS011;228;48.922;12.198;2023-05-10T15:08:02;2.20;;;2.10;;
483;SDS011;228;48.922;12.198;2023-05-10T15:10:29;2.10;;;2.00;;
483;SDS011;228;48.922;12.198;2023-05-10T15:12:55;3.03;;;2.57;;
483;SDS011;228;48.922;12.198;2023-05-10T15:15:21;3.03;;;2.63;;
483;SDS011;228;48.922;12.198;2023-05-10T15:17:47;2.70;;;2.50;;
483;SDS011;228;48.922;12.198;2023-05-10T15:20:13;2.60;;;2.40;;
483;SDS011;228;48.922;12.198;2023-05-10T15:22:40;2.93;;;2.73;;
483;SDS011;228;48.922;12.198;2023-05-10T15:25:06;3.57;;;3.27;;
483;SDS011;228;48.922;12.198;2023-05-10T15:27:32;2.73;;;2.53;;
483;SDS011;228;48.922;12.198;2023-05-10T15:29:59;2.30;;;2.10;;
483;SDS011;228;48.922;12.198;2023-05-10T15:32:25;3.20;;;3.00;;
483;SDS011;228;48.922;12.198;2023-05-10T15:34:51;3.13;;;2.83;;
483;SDS011;228;48.922;12.198;2023-05-10T15:37:17;2.90;;;2.27;;
483;SDS011;228;48.922;12.198;2023-05-10T15:39:43;2.37;;;2.17;;
483;SDS011;228;48.922;12.198;2023-05-10T15:45:16;1.80;;;1.70;;
483;SDS011;228;48.922;12.198;2023-05-10T15:47:42;2.33;;;1.77;;
483;SDS011;228;48.922;12.198;2023-05-10T15:50:09;2.77;;;2.10;;
483;SDS011;228;48.922;12.198;2023-05-10T15:52:35;3.53;;;2.20;;
483;SDS011;228;48.922;12.198;2023-05-10T15:55:01;3.20;;;2.30;;
483;SDS011;228;48.922;12.198;2023-05-10T15:57:28;2.40;;;2.20;;
483;SDS011;228;48.922;12.198;2023-05-10T15:59:54;4.00;;;2.77;;
483;SDS011;228;48.922;12.198;2023-05-10T16:02:20;2.57;;;2.37;;
483;SDS011;228;48.922;12.198;2023-05-10T16:04:47;3.83;;;2.90;;
483;SDS011;228;48.922;12.198;2023-05-10T16:07:13;3.27;;;2.80;;
483;SDS011;228;48.922;12.198;2023-05-10T16:09:39;4.10;;;2.97;;
483;SDS011;228;48.922;12.198;2023-05-10T16:12:05;3.20;;;2.70;;
483;SDS011;228;48.922;12.198;2023-05-10T16:14:32;2.80;;;2.60;;
483;SDS011;228;48.922;12.198;2023-05-10T16:16:58;2.47;;;2.27;;
483;SDS011;228;48.922;12.198;2023-05-10T16:19:25;2.77;;;2.57;;
483;SDS011;228;48.922;12.198;2023-05-10T16:21:51;4.80;;;2.57;;
483;SDS011;228;48.922;12.198;2023-05-10T16:24:17;3.73;;;2.67;;
483;SDS011;228;48.922;12.198;2023-05-10T16:26:43;4.70;;;2.97;;
483;SDS011;228;48.922;12.198;2023-05-10T16:29:09;3.87;;;2.80;;
483;SDS011;228;48.922;12.198;2023-05-10T16:31:47;4.30;;;2.80;;
483;SDS011;228;48.922;12.198;2023-05-10T16:34:16;2.87;;;2.67;;
483;SDS011;228;48.922;12.198;2023-05-10T16:36:44;2.77;;;2.50;;
483;SDS011;228;48.922;12.198;2023-05-10T16:39:10;2.40;;;2.20;;
483;SDS011;228;48.922;12.198;2023-05-10T16:41:36;3.33;;;2.67;;
483;SDS011;228;48.922;12.198;2023-05-10T16:44:02;2.83;;;2.20;;
483;SDS011;228;48.922;12.198;2023-05-10T16:46:29;3.00;;;2.40;;
483;SDS011;228;48.922;12.198;2023-05-10T16:48:56;3.00;;;2.43;;
483;SDS011;228;48.922;12.198;2023-05-10T16:51:24;2.77;;;2.40;;
483;SDS011;228;48.922;12.198;2023-05-10T16:53:51;3.80;;;2.53;;
483;SDS011;228;48.922;12.198;2023-05-10T16:56:17;2.40;;;2.20;;
483;SDS011;228;48.922;12.198;2023-05-10T16:58:45;2.63;;;2.43;;
483;SDS011;228;48.922;12.198;2023-05-10T17:01:14;4.13;;;2.70;;
483;SDS011;228;48.922;12.198;2023-05-10T17:03:41;2.73;;;2.20;;
483;SDS011;228;48.922;12.198;2023-05-10T17:06:07;4.33;;;2.40;;
483;SDS011;228;48.922;12.198;2023-05-10T17:08:33;3.83;;;3.50;;
483;SDS011;228;48.922;12.198;2023-05-10T17:11:02;21.93;;;17.00;;
483;SDS011;228;48.922;12.198;2023-05-10T17:13:28;5.43;;;3.47;;
483;SDS011;228;48.922;12.198;2023-05-10T17:15:56;3.30;;;3.00;;
483;SDS011;228;48.922;12.198;2023-05-10T17:18:22;6.33;;;5.37;;
483;SDS011;228;48.922;12.198;2023-05-10T17:20:49;4.70;;;4.27;;
483;SDS011;228;48.922;12.198;2023-05-10T17:23:15;5.13;;;4.20;;
483;SDS011;228;48.922;12.198;2023-05-10T17:25:41;4.70;;;4.30;;
483;SDS011;228;48.922;12.198;2023-05-10T17:28:07;4.60;;;4.07;;
483;SDS011;228;48.922;12.198;2023-05-10T17:30:33;5.30;;;3.97;;
483;SDS011;228;48.922;12.198;2023-05-10T17:32:59;5.00;;;4.47;;
483;SDS011;228;48.922;12.198;2023-05-10T17:35:25;5.80;;;3.40;;
483;SDS011;228;48.922;12.198;2023-05-10T17:37:52;7.40;;;5.33;;
483;SDS011;228;48.922;12.198;2023-05-10T17:40:18;5.30;;;4.80;;
483;SDS011;228;48.922;12.198;2023-05-10T17:42:44;6.73;;;5.57;;
483;SDS011;228;48.922;12.198;2023-05-10T17:45:10;6.90;;;6.30;;
483;SDS011;228;48.922;12.198;2023-05-10T17:47:36;4.87;;;4.37;;
483;SDS011;228;48.922;12.198;2023-05-10T17:50:03;5.47;;;4.00;;
483;SDS011;228;48.922;12.198;2023-05-10T17:52:30;6.27;;;3.90;;
483;SDS011;228;48.922;12.198;2023-05-10T17:54:56;4.17;;;3.73;;
483;SDS011;228;48.922;12.198;2023-05-10T17:57:23;4.87;;;4.17;;
483;SDS011;228;48.922;12.198;2023-05-10T17:59:50;4.77;;;3.93;;
483;SDS011;228;48.922;12.198;2023-05-10T18:02:16;7.23;;;4.60;;
483;SDS011;228;48.922;12.198;2023-05-10T18:04:42;4.67;;;3.80;;
483;SDS011;228;48.922;12.198;2023-05-10T18:07:09;4.40;;;3.80;;
483;SDS011;228;48.922;12.198;2023-05-10T18:09:35;4.40;;;3.87;;
483;SDS011;228;48.922;12.198;2023-05-10T18:12:03;4.70;;;3.37;;
483;SDS011;228;48.922;12.198;2023-05-10T18:14:30;3.67;;;3.37;;
483;SDS011;228;48.922;12.198;2023-05-10T18:16:57;3.43;;;3.13;;
483;SDS011;228;48.922;12.198;2023-05-10T18:19:23;3.33;;;3.03;;
483;SDS011;228;48.922;12.198;2023-05-10T18:21:49;3.43;;;3.13;;
483;SDS011;228;48.922;12.198;2023-05-10T18:24:18;3.17;;;2.87;;
483;SDS011;228;48.922;12.198;2023-05-10T18:26:47;7.17;;;3.70;;
483;SDS011;228;48.922;12.198;2023-05-10T18:29:13;4.83;;;3.30;;
483;SDS011;228;48.922;12.198;2023-05-10T18:31:39;3.87;;;3.47;;
483;SDS011;228;48.922;12.198;2023-05-10T18:34:05;3.93;;;3.40;;
483;SDS011;228;48.922;12.198;2023-05-10T18:36:31;6.13;;;3.10;;
483;SDS011;228;48.922;12.198;2023-05-10T18:38:57;4.10;;;3.07;;
483;SDS011;228;48.922;12.198;2023-05-10T18:41:24;3.70;;;3.20;;
483;SDS011;228;48.922;12.198;2023-05-10T18:43:52;3.80;;;3.10;;
483;SDS011;228;48.922;12.198;2023-05-10T18:46:19;3.10;;;2.80;;
483;SDS011;228;48.922;12.198;2023-05-10T18:48:45;3.67;;;3.00;;
483;SDS011;228;48.922;12.198;2023-05-10T18:51:11;3.73;;;3.23;;
483;SDS011;228;48.922;12.198;2023-05-10T18:53:37;3.30;;;3.00;;
483;SDS011;228;48.922;12.198;2023-05-10T18:56:04;3.10;;;2.80;;
483;SDS011;228;48.922;12.198;2023-05-10T18:58:31;2.87;;;2.67;;
483;SDS011;228;48.922;12.198;2023-05-10T19:00:59;2.90;;;2.60;;
483;SDS011;228;48.922;12.198;2023-05-10T19:03:27;4.33;;;2.67;;
483;SDS011;228;48.922;12.198;2023-05-10T19:05:53;2.90;;;2.37;;
483;SDS011;228;48.922;12.198;2023-05-10T19:08:21;2.50;;;2.30;;
483;SDS011;228;48.922;12.198;2023-05-10T19:10:47;2.93;;;2.43;;
483;SDS011;228;48.922;12.198;2023-05-10T19:13:13;3.63;;;2.20;;
483;SDS011;228;48.922;12.198;2023-05-10T19:15:39;4.07;;;2.43;;
483;SDS011;228;48.922;12.198;2023-05-10T19:18:06;2.80;;;2.50;;
483;SDS011;228;48.922;12.198;2023-05-10T19:20:32;2.50;;;2.30;;
483;SDS011;228;48.922;12.198;2023-05-10T19:22:59;2.20;;;2.00;;
483;SDS011;228;48.922;12.198;2023-05-10T19:25:26;2.83;;;2.43;;
483;SDS011;228;48.922;12.198;2023-05-10T19:27:54;2.77;;;2.30;;
483;SDS011;228;48.922;12.198;2023-05-10T19:30:24;2.77;;;2.57;;
483;SDS011;228;48.922;12.198;2023-05-10T19:32:50;2.90;;;2.50;;
483;SDS011;228;48.922;12.198;2023-05-10T19:35:16;2.77;;;2.40;;
483;SDS011;228;48.922;12.198;2023-05-10T19:37:42;2.70;;;2.50;;
483;SDS011;228;48.922;12.198;2023-05-10T19:40:11;4.83;;;2.70;;
483;SDS011;228;48.922;12.198;2023-05-10T19:42:40;2.83;;;2.53;;
483;SDS011;228;48.922;12.198;2023-05-10T19:45:06;2.80;;;2.40;;
483;SDS011;228;48.922;12.198;2023-05-10T19:47:33;2.90;;;2.70;;
483;SDS011;228;48.922;12.198;2023-05-10T19:50:01;3.37;;;2.70;;
483;SDS011;228;48.922;12.198;2023-05-10T19:52:27;6.37;;;2.87;;
483;SDS011;228;48.922;12.198;2023-05-10T19:54:54;3.03;;;2.60;;